AirNav   TITAN Aviation Fuels
 
 1082 users online  

08NY MD1 Airport
Middletown, New York, USA

GOING TO MIDDLETOWN?


FAA INFORMATION EFFECTIVE 22 APRIL 2021

Location

FAA Identifier: 08NY
Lat/Long: 41-22-02.1382N 074-31-08.1639W
41-22.035637N 074-31.136065W
41.3672606,-74.5189344
(estimated)
Elevation: 569 ft. / 173 m (estimated)
Variation: 13W (2000)
From city: 6 miles SW of MIDDLETOWN, NY
Time zone: UTC -4 (UTC -5 during Standard Time)
Zip code: 10998

Airport Operations

Airport use: Private use. Permission required prior to landing
Activation date: 02/2002
Control tower: no
ARTCC: NEW YORK CENTER
FSS: NEW YORK FLIGHT SERVICE STATION
Attendance: UNATNDD
Wind indicator: yes
Segmented circle: no

Airport Communications

WX ASOS at FWN (11 nm SW): 118.525 (973-875-0859)
WX ASOS at MGJ (14 nm NE): 119.275 (845-457-1486)

Nearby radio navigation aids

VOR radial/distance  VOR name  Freq  Var
HUOr139/4.1HUGUENOT VOR/DME116.1011W
SAXr014/18.0SPARTA VORTAC115.7011W
STWr046/27.3STILLWATER VOR/DME109.6011W
IGNr252/36.1KINGSTON VOR/DME117.6012W
BWZr033/36.8BROADWAY VOR/DME114.2011W
TEBr337/37.3TETERBORO VOR/DME108.4011W

 
NDB name  Hdg/Dist  Freq  Var  ID
NEELY255/14.933514WSW ... .--
STANWYCK258/23.426112WSKU ... -.- ..-
CHATHAM007/37.825413WCAT -.-. .- -

Airport Services

Runway Information

Runway 6/24

Dimensions: 500 x 60 ft. / 152 x 18 m
Surface: turf
RUNWAY 6  RUNWAY 24
Latitude: 41-22.022000N41-22.081167N
Longitude: 074-31.183500W074-31.106000W
Elevation: 549.0 ft.540.0 ft.
Traffic pattern: leftleft
Runway heading: 058 magnetic, 045 true238 magnetic, 225 true

Runway 15/33

Dimensions: 450 x 40 ft. / 137 x 12 m
Surface: turf
RUNWAY 15  RUNWAY 33
Latitude: 41-22.043333N41-21.992500N
Longitude: 074-31.162833W074-31.090000W
Elevation: 549.0 ft.569.0 ft.
Traffic pattern: leftleft
Runway heading: 146 magnetic, 133 true326 magnetic, 313 true

Airport Ownership and Management from official FAA records

Ownership: Privately-owned
Owner: MARTIN DI SIENO
153 ROME SCHOOL RD
JOHNSON, NY 10933
Phone 845-355-3715
Manager: MARTIN DI SIENO
153 ROME SCHOOL RD
JOHNSON, NY 10933
Phone 845-355-3715

Airport Operational Statistics

Aircraft based on the field: 2
Single engine airplanes: 1
Ultralights: 1
    

Additional Remarks

FOR CD CTC NEW YORK APCH AT 516-683-2448.

Instrument Procedures

There are no published instrument procedures at 08NY.

Some nearby airports with instrument procedures:

06N - Randall Airport (7 nm NE)
KFWN - Sussex Airport (11 nm SW)
N82 - Wurtsboro-Sullivan County Airport (14 nm N)
KMGJ - Orange County Airport (14 nm NE)
4N1 - Greenwood Lake Airport (16 nm SE)
 
Loc | Ops | Rwys | IFR | FBO | Links
Com | Nav | Svcs | Stats | Notes
Area around 08NY (MD1 Airport)
 
Road maps at: MapQuest Bing Google
 
Aerial photo
No photo
 
Sectional chart

 
Airport distance calculator
Flying to MD1 Airport? Find the distance to fly.

From to 08NY

Sunrise and sunset
Times for 16-May-2021
 Local
(UTC-4)
 Zulu
(UTC)
Morning civil twilight05:0809:08
Sunrise05:3909:39
Sunset20:1000:10
Evening civil twilight20:4100:41

Current date and time
Zulu (UTC)  17-May-2021 01:11:37
Local (UTC-4)  16-May-2021 21:11:37
 
METAR
KFWN 
11nm SW 
170053Z AUTO 00000KT 10SM OVC110 16/09 A3025 RMK AO2 SLP241 T01560089
KMGJ 
14nm NE 
SuperAWOS
170054Z AUTO 00000KT 10SM SCT110 12/09 A3023 RMK AO2 SLP236 T01170089
KSWF 
21nm E 
170045Z 00000KT 10SM BKN070 14/09 A3023
TAF
KSWF 
21nm E 
161950Z 1620/1724 20008KT P6SM VCSH SCT060 BKN120 FM162200 23007KT P6SM SCT060 BKN120 FM170100 VRB05KT P6SM SCT060 BKN250 FM171700 21008KT P6SM SCT060 SCT250 AMD NOT SKED
NOTAMs
Click for the latest NOTAMs
NOTAMs are issued by the DoD/FAA and will open in a separate window not controlled by AirNav.

 

 
 

Would you like to see your business listed on this page?

 If your business provides an interesting product or service to pilots, flight crews, aircraft, or users of the MD1 Airport, you should consider listing it here.  To start the listing process, click on the button below
 
Add a business
 

Other Pages about MD1 Airport

Update a link
 
Copyright © AirNav, LLC. All rights reserved. Privacy Policy  Contact